sensor_id;sensor_type;location;lat;lon;timestamp;pressure;altitude;pressure_sealevel;temperature;humidity
51067;BME280;37112;45.892;-123.962;2022-12-18T00:01:25;101808.63;;;7.17;80.85
51067;BME280;37112;45.892;-123.962;2022-12-18T00:03:39;101805.61;;;7.18;80.76
51067;BME280;37112;45.892;-123.962;2022-12-18T00:05:54;101805.44;;;7.18;80.76
51067;BME280;37112;45.892;-123.962;2022-12-18T00:08:07;101807.73;;;7.18;80.68
51067;BME280;37112;45.892;-123.962;2022-12-18T00:10:21;101809.52;;;7.17;80.83
51067;BME280;37112;45.892;-123.962;2022-12-18T00:12:34;101807.22;;;7.17;80.87
51067;BME280;37112;45.892;-123.962;2022-12-18T00:14:47;101811.27;;;7.18;81.11
51067;BME280;37112;45.892;-123.962;2022-12-18T00:17:00;101808.77;;;7.18;81.35
51067;BME280;37112;45.892;-123.962;2022-12-18T00:19:14;101806.10;;;7.19;81.47
51067;BME280;37112;45.892;-123.962;2022-12-18T00:21:29;101805.77;;;7.18;81.52
51067;BME280;37112;45.892;-123.962;2022-12-18T00:23:43;101805.23;;;7.19;81.55
51067;BME280;37112;45.892;-123.962;2022-12-18T00:25:58;101803.11;;;7.19;81.39
51067;BME280;37112;45.892;-123.962;2022-12-18T00:28:12;101804.64;;;7.20;81.53
51067;BME280;37112;45.892;-123.962;2022-12-18T00:30:25;101803.79;;;7.20;81.53
51067;BME280;37112;45.892;-123.962;2022-12-18T00:32:39;101803.09;;;7.19;81.47
51067;BME280;37112;45.892;-123.962;2022-12-18T00:34:52;101806.14;;;7.18;81.44
51067;BME280;37112;45.892;-123.962;2022-12-18T00:37:06;101804.23;;;7.17;81.40
51067;BME280;37112;45.892;-123.962;2022-12-18T00:39:25;101806.87;;;7.17;81.79
51067;BME280;37112;45.892;-123.962;2022-12-18T00:41:38;101804.75;;;7.17;82.15
51067;BME280;37112;45.892;-123.962;2022-12-18T00:44:09;101802.04;;;7.14;82.00
51067;BME280;37112;45.892;-123.962;2022-12-18T00:46:23;101800.02;;;7.11;82.34
51067;BME280;37112;45.892;-123.962;2022-12-18T00:48:36;101805.06;;;7.09;82.84
51067;BME280;37112;45.892;-123.962;2022-12-18T00:50:50;101802.66;;;7.06;82.76
51067;BME280;37112;45.892;-123.962;2022-12-18T00:53:03;101801.14;;;7.04;82.95
51067;BME280;37112;45.892;-123.962;2022-12-18T00:55:17;101798.89;;;7.04;83.34
51067;BME280;37112;45.892;-123.962;2022-12-18T00:57:30;101792.79;;;7.01;83.50
51067;BME280;37112;45.892;-123.962;2022-12-18T00:59:44;101787.84;;;7.01;83.50
51067;BME280;37112;45.892;-123.962;2022-12-18T01:02:00;101787.48;;;7.01;83.53
51067;BME280;37112;45.892;-123.962;2022-12-18T01:04:13;101783.09;;;7.01;83.94
51067;BME280;37112;45.892;-123.962;2022-12-18T01:06:27;101782.96;;;6.99;84.02
51067;BME280;37112;45.892;-123.962;2022-12-18T01:08:41;101784.95;;;6.97;84.20
51067;BME280;37112;45.892;-123.962;2022-12-18T01:10:55;101784.88;;;6.95;84.26
51067;BME280;37112;45.892;-123.962;2022-12-18T01:13:08;101784.95;;;6.93;84.33
51067;BME280;37112;45.892;-123.962;2022-12-18T01:15:22;101782.73;;;6.91;84.40
51067;BME280;37112;45.892;-123.962;2022-12-18T01:17:35;101781.02;;;6.89;84.36
51067;BME280;37112;45.892;-123.962;2022-12-18T01:19:49;101779.65;;;6.88;84.47
51067;BME280;37112;45.892;-123.962;2022-12-18T01:22:02;101779.31;;;6.88;84.33
51067;BME280;37112;45.892;-123.962;2022-12-18T01:24:16;101772.48;;;6.86;84.32
51067;BME280;37112;45.892;-123.962;2022-12-18T01:26:30;101770.56;;;6.86;84.15
51067;BME280;37112;45.892;-123.962;2022-12-18T01:28:44;101768.11;;;6.86;84.17
51067;BME280;37112;45.892;-123.962;2022-12-18T01:30:57;101766.02;;;6.84;84.13
51067;BME280;37112;45.892;-123.962;2022-12-18T01:33:21;101767.25;;;6.84;84.04
51067;BME280;37112;45.892;-123.962;2022-12-18T01:35:39;101765.36;;;6.83;83.95
51067;BME280;37112;45.892;-123.962;2022-12-18T01:37:56;101765.41;;;6.81;83.88
51067;BME280;37112;45.892;-123.962;2022-12-18T01:40:12;101761.59;;;6.80;83.82
51067;BME280;37112;45.892;-123.962;2022-12-18T01:42:26;101761.64;;;6.79;83.77
51067;BME280;37112;45.892;-123.962;2022-12-18T01:45:09;101757.47;;;6.76;83.70
51067;BME280;37112;45.892;-123.962;2022-12-18T01:47:38;101757.39;;;6.74;83.61
51067;BME280;37112;45.892;-123.962;2022-12-18T01:49:54;101757.45;;;6.72;83.63
51067;BME280;37112;45.892;-123.962;2022-12-18T01:52:08;101757.34;;;6.70;83.62
51067;BME280;37112;45.892;-123.962;2022-12-18T01:54:21;101753.02;;;6.67;83.48
51067;BME280;37112;45.892;-123.962;2022-12-18T01:56:35;101748.05;;;6.63;83.48
51067;BME280;37112;45.892;-123.962;2022-12-18T01:59:00;101746.24;;;6.59;83.64
51067;BME280;37112;45.892;-123.962;2022-12-18T02:01:14;101744.50;;;6.58;83.86
51067;BME280;37112;45.892;-123.962;2022-12-18T02:03:28;101737.92;;;6.60;83.94
51067;BME280;37112;45.892;-123.962;2022-12-18T02:05:45;101741.42;;;6.60;84.02
51067;BME280;37112;45.892;-123.962;2022-12-18T02:08:07;101737.87;;;6.62;84.20
51067;BME280;37112;45.892;-123.962;2022-12-18T02:10:26;101736.45;;;6.61;84.03
51067;BME280;37112;45.892;-123.962;2022-12-18T02:12:46;101735.77;;;6.61;84.25
51067;BME280;37112;45.892;-123.962;2022-12-18T02:15:02;101740.33;;;6.61;84.51
51067;BME280;37112;45.892;-123.962;2022-12-18T02:17:22;101742.23;;;6.63;84.76
51067;BME280;37112;45.892;-123.962;2022-12-18T02:19:48;101741.11;;;6.65;84.97
51067;BME280;37112;45.892;-123.962;2022-12-18T02:22:14;101739.45;;;6.67;85.21
51067;BME280;37112;45.892;-123.962;2022-12-18T02:24:38;101735.14;;;6.68;85.62
51067;BME280;37112;45.892;-123.962;2022-12-18T02:26:56;101733.66;;;6.71;85.99
51067;BME280;37112;45.892;-123.962;2022-12-18T02:29:14;101728.71;;;6.76;86.43
51067;BME280;37112;45.892;-123.962;2022-12-18T02:31:31;101731.36;;;6.81;86.53
51067;BME280;37112;45.892;-123.962;2022-12-18T02:33:49;101722.27;;;6.83;86.42
51067;BME280;37112;45.892;-123.962;2022-12-18T02:36:10;101721.52;;;6.84;86.24
51067;BME280;37112;45.892;-123.962;2022-12-18T02:38:27;101720.98;;;6.84;86.19
51067;BME280;37112;45.892;-123.962;2022-12-18T02:40:47;101718.88;;;6.85;86.04
51067;BME280;37112;45.892;-123.962;2022-12-18T02:43:10;101716.23;;;6.84;85.83
51067;BME280;37112;45.892;-123.962;2022-12-18T02:45:23;101713.31;;;6.82;85.86
51067;BME280;37112;45.892;-123.962;2022-12-18T02:47:40;101717.21;;;6.81;85.92
51067;BME280;37112;45.892;-123.962;2022-12-18T02:50:02;101714.77;;;6.81;85.96
51067;BME280;37112;45.892;-123.962;2022-12-18T02:52:28;101714.79;;;6.80;85.94
51067;BME280;37112;45.892;-123.962;2022-12-18T02:55:00;101716.17;;;6.81;86.15
51067;BME280;37112;45.892;-123.962;2022-12-18T02:57:29;101715.89;;;6.84;86.29
51067;BME280;37112;45.892;-123.962;2022-12-18T02:59:54;101716.33;;;6.87;86.33
51067;BME280;37112;45.892;-123.962;2022-12-18T03:02:19;101709.54;;;6.89;86.38
51067;BME280;37112;45.892;-123.962;2022-12-18T03:04:38;101709.23;;;6.92;86.47
51067;BME280;37112;45.892;-123.962;2022-12-18T03:06:58;101709.33;;;6.94;86.39
51067;BME280;37112;45.892;-123.962;2022-12-18T03:09:16;101708.59;;;6.95;86.20
51067;BME280;37112;45.892;-123.962;2022-12-18T03:11:33;101702.98;;;6.94;85.92
51067;BME280;37112;45.892;-123.962;2022-12-18T03:14:04;101701.27;;;6.93;86.08
51067;BME280;37112;45.892;-123.962;2022-12-18T03:16:23;101702.86;;;6.93;86.18
51067;BME280;37112;45.892;-123.962;2022-12-18T03:18:40;101702.32;;;6.93;86.06
51067;BME280;37112;45.892;-123.962;2022-12-18T03:20:59;101709.02;;;6.92;86.05
51067;BME280;37112;45.892;-123.962;2022-12-18T03:23:19;101714.85;;;6.93;86.05
51067;BME280;37112;45.892;-123.962;2022-12-18T03:25:36;101712.01;;;6.94;85.96
51067;BME280;37112;45.892;-123.962;2022-12-18T03:27:55;101715.89;;;6.94;85.98
51067;BME280;37112;45.892;-123.962;2022-12-18T03:30:12;101717.80;;;6.94;86.20
51067;BME280;37112;45.892;-123.962;2022-12-18T03:32:31;101718.15;;;6.94;86.35
51067;BME280;37112;45.892;-123.962;2022-12-18T03:34:47;101718.84;;;6.95;86.54
51067;BME280;37112;45.892;-123.962;2022-12-18T03:37:03;101714.98;;;6.95;86.60
51067;BME280;37112;45.892;-123.962;2022-12-18T03:39:18;101712.81;;;6.96;86.63
51067;BME280;37112;45.892;-123.962;2022-12-18T03:41:41;101713.20;;;6.95;86.83
51067;BME280;37112;45.892;-123.962;2022-12-18T03:44:13;101710.89;;;6.95;86.91
51067;BME280;37112;45.892;-123.962;2022-12-18T03:46:31;101713.16;;;6.95;87.00
51067;BME280;37112;45.892;-123.962;2022-12-18T03:48:55;101714.03;;;6.96;86.90
51067;BME280;37112;45.892;-123.962;2022-12-18T03:51:14;101711.21;;;6.96;87.03
51067;BME280;37112;45.892;-123.962;2022-12-18T03:53:36;101714.73;;;6.96;87.02
51067;BME280;37112;45.892;-123.962;2022-12-18T03:55:54;101713.05;;;6.94;87.00
51067;BME280;37112;45.892;-123.962;2022-12-18T03:58:15;101714.69;;;6.93;87.09
51067;BME280;37112;45.892;-123.962;2022-12-18T04:00:55;101716.10;;;6.92;87.20
51067;BME280;37112;45.892;-123.962;2022-12-18T04:03:10;101718.20;;;6.93;87.73
51067;BME280;37112;45.892;-123.962;2022-12-18T04:05:29;101717.54;;;6.91;87.46
51067;BME280;37112;45.892;-123.962;2022-12-18T04:07:45;101718.45;;;6.91;87.68
51067;BME280;37112;45.892;-123.962;2022-12-18T04:10:01;101717.94;;;6.90;87.78
51067;BME280;37112;45.892;-123.962;2022-12-18T04:12:16;101716.54;;;6.90;87.73
51067;BME280;37112;45.892;-123.962;2022-12-18T04:14:30;101719.05;;;6.89;87.76
51067;BME280;37112;45.892;-123.962;2022-12-18T04:16:46;101715.57;;;6.88;87.71
51067;BME280;37112;45.892;-123.962;2022-12-18T04:19:03;101714.89;;;6.87;87.80
51067;BME280;37112;45.892;-123.962;2022-12-18T04:21:20;101715.91;;;6.88;87.92
51067;BME280;37112;45.892;-123.962;2022-12-18T04:23:34;101713.75;;;6.89;88.06
51067;BME280;37112;45.892;-123.962;2022-12-18T04:25:49;101717.20;;;6.91;88.10
51067;BME280;37112;45.892;-123.962;2022-12-18T04:28:17;101719.11;;;6.93;88.15
51067;BME280;37112;45.892;-123.962;2022-12-18T04:30:31;101715.92;;;6.92;88.12
51067;BME280;37112;45.892;-123.962;2022-12-18T04:32:44;101715.41;;;6.92;88.31
51067;BME280;37112;45.892;-123.962;2022-12-18T04:35:01;101714.16;;;6.92;88.33
51067;BME280;37112;45.892;-123.962;2022-12-18T04:37:15;101716.44;;;6.94;88.49
51067;BME280;37112;45.892;-123.962;2022-12-18T04:39:29;101716.98;;;6.93;88.49
51067;BME280;37112;45.892;-123.962;2022-12-18T04:41:47;101716.64;;;6.92;88.54
51067;BME280;37112;45.892;-123.962;2022-12-18T04:44:00;101714.79;;;6.90;88.43
51067;BME280;37112;45.892;-123.962;2022-12-18T04:46:14;101710.80;;;6.88;88.67
51067;BME280;37112;45.892;-123.962;2022-12-18T04:48:27;101708.73;;;6.87;88.68
51067;BME280;37112;45.892;-123.962;2022-12-18T04:50:43;101712.28;;;6.86;88.78
51067;BME280;37112;45.892;-123.962;2022-12-18T04:52:58;101710.91;;;6.85;88.83
51067;BME280;37112;45.892;-123.962;2022-12-18T04:55:12;101708.98;;;6.84;88.75
51067;BME280;37112;45.892;-123.962;2022-12-18T04:57:25;101705.45;;;6.84;88.86
51067;BME280;37112;45.892;-123.962;2022-12-18T04:59:38;101704.40;;;6.85;89.01
51067;BME280;37112;45.892;-123.962;2022-12-18T05:01:52;101699.10;;;6.84;89.04
51067;BME280;37112;45.892;-123.962;2022-12-18T05:04:06;101697.73;;;6.83;89.24
51067;BME280;37112;45.892;-123.962;2022-12-18T05:06:19;101695.98;;;6.83;89.20
51067;BME280;37112;45.892;-123.962;2022-12-18T05:08:32;101694.52;;;6.84;89.26
51067;BME280;37112;45.892;-123.962;2022-12-18T05:10:46;101692.20;;;6.85;89.20
51067;BME280;37112;45.892;-123.962;2022-12-18T05:12:59;101692.36;;;6.86;89.25
51067;BME280;37112;45.892;-123.962;2022-12-18T05:15:13;101693.21;;;6.86;89.17
51067;BME280;37112;45.892;-123.962;2022-12-18T05:17:27;101688.97;;;6.87;89.14
51067;BME280;37112;45.892;-123.962;2022-12-18T05:19:40;101688.44;;;6.86;89.08
51067;BME280;37112;45.892;-123.962;2022-12-18T05:21:53;101688.60;;;6.87;89.12
51067;BME280;37112;45.892;-123.962;2022-12-18T05:24:07;101693.35;;;6.87;89.07
51067;BME280;37112;45.892;-123.962;2022-12-18T05:26:21;101691.02;;;6.88;89.14
51067;BME280;37112;45.892;-123.962;2022-12-18T05:28:36;101686.60;;;6.88;89.16
51067;BME280;37112;45.892;-123.962;2022-12-18T05:30:52;101683.62;;;6.88;89.11
51067;BME280;37112;45.892;-123.962;2022-12-18T05:33:06;101683.11;;;6.87;89.20
51067;BME280;37112;45.892;-123.962;2022-12-18T05:35:20;101682.16;;;6.89;89.24
51067;BME280;37112;45.892;-123.962;2022-12-18T05:37:33;101676.86;;;6.89;89.22
51067;BME280;37112;45.892;-123.962;2022-12-18T05:39:51;101675.79;;;6.89;89.30
51067;BME280;37112;45.892;-123.962;2022-12-18T05:42:05;101670.26;;;6.91;89.44
51067;BME280;37112;45.892;-123.962;2022-12-18T05:44:18;101672.84;;;6.92;89.60
51067;BME280;37112;45.892;-123.962;2022-12-18T05:46:32;101671.23;;;6.93;89.64
51067;BME280;37112;45.892;-123.962;2022-12-18T05:48:46;101673.13;;;6.95;89.79
51067;BME280;37112;45.892;-123.962;2022-12-18T05:51:06;101673.02;;;6.97;90.30
51067;BME280;37112;45.892;-123.962;2022-12-18T05:53:20;101677.34;;;7.00;90.20
51067;BME280;37112;45.892;-123.962;2022-12-18T05:55:35;101676.77;;;7.01;90.23
51067;BME280;37112;45.892;-123.962;2022-12-18T05:57:49;101675.34;;;7.02;90.56
51067;BME280;37112;45.892;-123.962;2022-12-18T06:00:02;101675.88;;;7.02;90.46
51067;BME280;37112;45.892;-123.962;2022-12-18T06:02:20;101679.59;;;7.02;90.31
51067;BME280;37112;45.892;-123.962;2022-12-18T06:04:34;101679.63;;;7.01;90.48
51067;BME280;37112;45.892;-123.962;2022-12-18T06:06:48;101680.52;;;7.00;90.59
51067;BME280;37112;45.892;-123.962;2022-12-18T06:09:01;101679.13;;;6.99;90.31
51067;BME280;37112;45.892;-123.962;2022-12-18T06:11:21;101677.00;;;6.99;90.45
51067;BME280;37112;45.892;-123.962;2022-12-18T06:13:34;101675.23;;;6.99;90.48
51067;BME280;37112;45.892;-123.962;2022-12-18T06:15:48;101677.55;;;6.99;90.42
51067;BME280;37112;45.892;-123.962;2022-12-18T06:18:02;101676.80;;;7.00;90.71
51067;BME280;37112;45.892;-123.962;2022-12-18T06:20:16;101674.51;;;7.01;90.83
51067;BME280;37112;45.892;-123.962;2022-12-18T06:22:30;101673.44;;;7.01;90.80
51067;BME280;37112;45.892;-123.962;2022-12-18T06:24:43;101671.68;;;7.01;90.61
51067;BME280;37112;45.892;-123.962;2022-12-18T06:26:56;101675.61;;;6.99;90.51
51067;BME280;37112;45.892;-123.962;2022-12-18T06:29:10;101675.33;;;6.97;90.35
51067;BME280;37112;45.892;-123.962;2022-12-18T06:31:23;101675.41;;;6.95;90.25
51067;BME280;37112;45.892;-123.962;2022-12-18T06:33:37;101677.75;;;6.94;90.23
51067;BME280;37112;45.892;-123.962;2022-12-18T06:35:51;101679.90;;;6.93;90.41
51067;BME280;37112;45.892;-123.962;2022-12-18T06:38:09;101679.19;;;6.93;90.36
51067;BME280;37112;45.892;-123.962;2022-12-18T06:40:23;101682.91;;;6.92;90.20
51067;BME280;37112;45.892;-123.962;2022-12-18T06:42:36;101684.85;;;6.93;90.42
51067;BME280;37112;45.892;-123.962;2022-12-18T06:44:50;101689.48;;;6.91;90.36
51067;BME280;37112;45.892;-123.962;2022-12-18T06:47:03;101683.74;;;6.89;90.39
51067;BME280;37112;45.892;-123.962;2022-12-18T06:49:17;101687.16;;;6.88;90.41
51067;BME280;37112;45.892;-123.962;2022-12-18T06:51:34;101682.95;;;6.87;90.40
51067;BME280;37112;45.892;-123.962;2022-12-18T06:53:47;101688.92;;;6.88;90.62
51067;BME280;37112;45.892;-123.962;2022-12-18T06:56:05;101689.38;;;6.89;90.64
51067;BME280;37112;45.892;-123.962;2022-12-18T06:58:19;101685.48;;;6.90;90.66
51067;BME280;37112;45.892;-123.962;2022-12-18T07:00:33;101688.79;;;6.91;90.52
51067;BME280;37112;45.892;-123.962;2022-12-18T07:02:46;101685.05;;;6.92;90.60
51067;BME280;37112;45.892;-123.962;2022-12-18T07:05:00;101684.82;;;6.94;90.74
51067;BME280;37112;45.892;-123.962;2022-12-18T07:07:19;101686.41;;;6.94;90.73
51067;BME280;37112;45.892;-123.962;2022-12-18T07:09:33;101685.16;;;6.94;90.78
51067;BME280;37112;45.892;-123.962;2022-12-18T07:11:46;101683.23;;;6.94;90.78
51067;BME280;37112;45.892;-123.962;2022-12-18T07:14:01;101681.44;;;6.94;90.60
51067;BME280;37112;45.892;-123.962;2022-12-18T07:16:16;101685.48;;;6.95;90.65
51067;BME280;37112;45.892;-123.962;2022-12-18T07:18:34;101683.13;;;6.96;90.65
51067;BME280;37112;45.892;-123.962;2022-12-18T07:20:47;101684.70;;;6.97;90.58
51067;BME280;37112;45.892;-123.962;2022-12-18T07:23:00;101681.90;;;6.96;90.38
51067;BME280;37112;45.892;-123.962;2022-12-18T07:25:14;101678.94;;;6.95;90.09
51067;BME280;37112;45.892;-123.962;2022-12-18T07:27:27;101681.48;;;6.93;89.99
51067;BME280;37112;45.892;-123.962;2022-12-18T07:29:41;101687.88;;;6.91;89.80
51067;BME280;37112;45.892;-123.962;2022-12-18T07:31:54;101684.98;;;6.89;89.96
51067;BME280;37112;45.892;-123.962;2022-12-18T07:34:09;101687.49;;;6.88;89.93
51067;BME280;37112;45.892;-123.962;2022-12-18T07:36:25;101690.73;;;6.87;89.79
51067;BME280;37112;45.892;-123.962;2022-12-18T07:38:39;101689.52;;;6.86;89.87
51067;BME280;37112;45.892;-123.962;2022-12-18T07:40:52;101693.41;;;6.86;89.99
51067;BME280;37112;45.892;-123.962;2022-12-18T07:43:05;101693.05;;;6.86;90.01
51067;BME280;37112;45.892;-123.962;2022-12-18T07:45:18;101687.69;;;6.88;90.04
51067;BME280;37112;45.892;-123.962;2022-12-18T07:47:33;101691.06;;;6.87;89.95
51067;BME280;37112;45.892;-123.962;2022-12-18T07:49:46;101686.96;;;6.88;90.06
51067;BME280;37112;45.892;-123.962;2022-12-18T07:52:00;101681.10;;;6.89;90.22
51067;BME280;37112;45.892;-123.962;2022-12-18T07:54:14;101680.91;;;6.89;90.29
51067;BME280;37112;45.892;-123.962;2022-12-18T07:56:27;101680.15;;;6.91;90.37
51067;BME280;37112;45.892;-123.962;2022-12-18T07:58:40;101677.71;;;6.90;90.24
51067;BME280;37112;45.892;-123.962;2022-12-18T08:01:01;101679.30;;;6.90;90.27
51067;BME280;37112;45.892;-123.962;2022-12-18T08:03:16;101680.05;;;6.89;90.23
51067;BME280;37112;45.892;-123.962;2022-12-18T08:05:31;101679.73;;;6.88;90.22
51067;BME280;37112;45.892;-123.962;2022-12-18T08:07:45;101679.23;;;6.87;90.32
51067;BME280;37112;45.892;-123.962;2022-12-18T08:09:58;101674.51;;;6.86;90.37
51067;BME280;37112;45.892;-123.962;2022-12-18T08:12:12;101673.98;;;6.86;90.39
51067;BME280;37112;45.892;-123.962;2022-12-18T08:14:25;101670.84;;;6.84;90.41
51067;BME280;37112;45.892;-123.962;2022-12-18T08:16:39;101665.98;;;6.82;90.48
51067;BME280;37112;45.892;-123.962;2022-12-18T08:18:54;101662.68;;;6.81;90.52
51067;BME280;37112;45.892;-123.962;2022-12-18T08:21:18;101659.19;;;6.80;90.54
51067;BME280;37112;45.892;-123.962;2022-12-18T08:23:31;101657.64;;;6.79;90.64
51067;BME280;37112;45.892;-123.962;2022-12-18T08:25:51;101655.02;;;6.78;90.68
51067;BME280;37112;45.892;-123.962;2022-12-18T08:28:04;101654.70;;;6.78;90.64
51067;BME280;37112;45.892;-123.962;2022-12-18T08:30:18;101653.45;;;6.78;90.75
51067;BME280;37112;45.892;-123.962;2022-12-18T08:32:31;101653.90;;;6.80;90.99
51067;BME280;37112;45.892;-123.962;2022-12-18T08:34:45;101653.34;;;6.81;91.00
51067;BME280;37112;45.892;-123.962;2022-12-18T08:36:59;101649.27;;;6.81;91.04
51067;BME280;37112;45.892;-123.962;2022-12-18T08:39:12;101649.03;;;6.82;91.23
51067;BME280;37112;45.892;-123.962;2022-12-18T08:41:25;101647.04;;;6.84;91.50
51067;BME280;37112;45.892;-123.962;2022-12-18T08:43:40;101644.86;;;6.86;91.39
51067;BME280;37112;45.892;-123.962;2022-12-18T08:46:10;101646.21;;;6.87;91.40
51067;BME280;37112;45.892;-123.962;2022-12-18T08:48:24;101643.77;;;6.86;91.26
51067;BME280;37112;45.892;-123.962;2022-12-18T08:50:37;101648.02;;;6.86;91.28
51067;BME280;37112;45.892;-123.962;2022-12-18T08:52:50;101645.91;;;6.86;91.11
51067;BME280;37112;45.892;-123.962;2022-12-18T08:55:04;101644.19;;;6.85;91.12
51067;BME280;37112;45.892;-123.962;2022-12-18T08:57:18;101644.91;;;6.84;91.15
51067;BME280;37112;45.892;-123.962;2022-12-18T08:59:31;101646.34;;;6.84;91.08
51067;BME280;37112;45.892;-123.962;2022-12-18T09:01:44;101644.94;;;6.84;91.29
51067;BME280;37112;45.892;-123.962;2022-12-18T09:03:58;101643.14;;;6.84;91.36
51067;BME280;37112;45.892;-123.962;2022-12-18T09:06:15;101643.13;;;6.85;91.41
51067;BME280;37112;45.892;-123.962;2022-12-18T09:08:29;101638.49;;;6.86;91.56
51067;BME280;37112;45.892;-123.962;2022-12-18T09:10:46;101635.11;;;6.87;91.38
51067;BME280;37112;45.892;-123.962;2022-12-18T09:13:00;101638.24;;;6.88;91.17
51067;BME280;37112;45.892;-123.962;2022-12-18T09:15:14;101645.31;;;6.88;91.41
51067;BME280;37112;45.892;-123.962;2022-12-18T09:17:27;101646.92;;;6.87;91.12
51067;BME280;37112;45.892;-123.962;2022-12-18T09:19:41;101647.75;;;6.84;90.88
51067;BME280;37112;45.892;-123.962;2022-12-18T09:21:54;101648.36;;;6.82;90.91
51067;BME280;37112;45.892;-123.962;2022-12-18T09:24:08;101649.52;;;6.79;91.01
51067;BME280;37112;45.892;-123.962;2022-12-18T09:26:25;101643.16;;;6.74;90.83
51067;BME280;37112;45.892;-123.962;2022-12-18T09:28:39;101640.84;;;6.70;90.60
51067;BME280;37112;45.892;-123.962;2022-12-18T09:30:52;101640.75;;;6.68;90.72
51067;BME280;37112;45.892;-123.962;2022-12-18T09:33:06;101643.65;;;6.66;90.87
51067;BME280;37112;45.892;-123.962;2022-12-18T09:35:19;101640.52;;;6.65;90.81
51067;BME280;37112;45.892;-123.962;2022-12-18T09:37:32;101638.20;;;6.65;91.00
51067;BME280;37112;45.892;-123.962;2022-12-18T09:39:46;101635.70;;;6.66;91.13
51067;BME280;37112;45.892;-123.962;2022-12-18T09:42:00;101637.59;;;6.67;91.23
51067;BME280;37112;45.892;-123.962;2022-12-18T09:44:21;101632.99;;;6.67;91.10
51067;BME280;37112;45.892;-123.962;2022-12-18T09:46:37;101635.66;;;6.67;91.19
51067;BME280;37112;45.892;-123.962;2022-12-18T09:48:54;101636.19;;;6.67;91.19
51067;BME280;37112;45.892;-123.962;2022-12-18T09:51:15;101632.76;;;6.65;91.00
51067;BME280;37112;45.892;-123.962;2022-12-18T09:53:34;101631.85;;;6.60;91.02
51067;BME280;37112;45.892;-123.962;2022-12-18T09:55:50;101633.53;;;6.58;90.99
51067;BME280;37112;45.892;-123.962;2022-12-18T09:58:12;101636.05;;;6.56;91.03
51067;BME280;37112;45.892;-123.962;2022-12-18T10:00:28;101635.95;;;6.55;91.06
51067;BME280;37112;45.892;-123.962;2022-12-18T10:02:41;101637.56;;;6.54;91.23
51067;BME280;37112;45.892;-123.962;2022-12-18T10:05:07;101635.77;;;6.55;91.26
51067;BME280;37112;45.892;-123.962;2022-12-18T10:07:27;101638.42;;;6.55;91.57
51067;BME280;37112;45.892;-123.962;2022-12-18T10:09:45;101643.66;;;6.56;92.04
51067;BME280;37112;45.892;-123.962;2022-12-18T10:12:12;101644.75;;;6.55;91.84
51067;BME280;37112;45.892;-123.962;2022-12-18T10:14:34;101647.04;;;6.55;92.24
51067;BME280;37112;45.892;-123.962;2022-12-18T10:16:59;101651.70;;;6.53;92.48
51067;BME280;37112;45.892;-123.962;2022-12-18T10:19:24;101655.41;;;6.53;92.25
51067;BME280;37112;45.892;-123.962;2022-12-18T10:21:42;101658.05;;;6.53;92.26
51067;BME280;37112;45.892;-123.962;2022-12-18T10:24:03;101659.14;;;6.52;92.19
51067;BME280;37112;45.892;-123.962;2022-12-18T10:26:21;101655.21;;;6.53;92.16
51067;BME280;37112;45.892;-123.962;2022-12-18T10:28:36;101656.27;;;6.54;92.19
51067;BME280;37112;45.892;-123.962;2022-12-18T10:30:50;101660.52;;;6.54;92.12
51067;BME280;37112;45.892;-123.962;2022-12-18T10:33:05;101661.84;;;6.51;91.70
51067;BME280;37112;45.892;-123.962;2022-12-18T10:35:21;101654.27;;;6.45;91.53
51067;BME280;37112;45.892;-123.962;2022-12-18T10:37:35;101660.19;;;6.42;91.54
51067;BME280;37112;45.892;-123.962;2022-12-18T10:40:04;101656.02;;;6.41;91.58
51067;BME280;37112;45.892;-123.962;2022-12-18T10:42:22;101651.56;;;6.42;91.79
51067;BME280;37112;45.892;-123.962;2022-12-18T10:44:35;101654.31;;;6.44;91.82
51067;BME280;37112;45.892;-123.962;2022-12-18T10:46:53;101654.45;;;6.45;91.79
51067;BME280;37112;45.892;-123.962;2022-12-18T10:49:17;101658.88;;;6.45;91.78
51067;BME280;37112;45.892;-123.962;2022-12-18T10:51:33;101655.42;;;6.42;91.78
51067;BME280;37112;45.892;-123.962;2022-12-18T10:53:56;101658.84;;;6.41;91.68
51067;BME280;37112;45.892;-123.962;2022-12-18T10:56:11;101663.82;;;6.40;91.91
51067;BME280;37112;45.892;-123.962;2022-12-18T10:58:27;101666.90;;;6.37;92.13
51067;BME280;37112;45.892;-123.962;2022-12-18T11:00:41;101672.05;;;6.32;92.78
51067;BME280;37112;45.892;-123.962;2022-12-18T11:02:54;101674.01;;;6.21;92.99
51067;BME280;37112;45.892;-123.962;2022-12-18T11:05:26;101672.67;;;6.13;92.31
51067;BME280;37112;45.892;-123.962;2022-12-18T11:07:56;101668.78;;;6.08;92.43
51067;BME280;37112;45.892;-123.962;2022-12-18T11:10:18;101667.08;;;6.06;92.51
51067;BME280;37112;45.892;-123.962;2022-12-18T11:12:33;101668.16;;;6.05;92.64
51067;BME280;37112;45.892;-123.962;2022-12-18T11:14:49;101664.89;;;6.03;92.49
51067;BME280;37112;45.892;-123.962;2022-12-18T11:17:03;101666.81;;;6.03;92.61
51067;BME280;37112;45.892;-123.962;2022-12-18T11:19:36;101662.77;;;6.04;92.51
51067;BME280;37112;45.892;-123.962;2022-12-18T11:21:50;101660.62;;;6.04;92.56
51067;BME280;37112;45.892;-123.962;2022-12-18T11:24:04;101657.56;;;6.06;92.59
51067;BME280;37112;45.892;-123.962;2022-12-18T11:26:18;101652.59;;;6.07;92.50
51067;BME280;37112;45.892;-123.962;2022-12-18T11:28:38;101649.77;;;6.08;92.38
51067;BME280;37112;45.892;-123.962;2022-12-18T11:31:20;101642.87;;;6.08;92.39
51067;BME280;37112;45.892;-123.962;2022-12-18T11:33:34;101642.13;;;6.09;92.49
51067;BME280;37112;45.892;-123.962;2022-12-18T11:36:10;101637.30;;;6.11;92.49